Timeline UpdatesTrip UpdatesNews PostsPvt PostsTravel TipsAdmin PostsConv PostsFollowed PostsChat RequestsBlog PostsPNR Posts

Disclaimer
Search
 
 
Thu Apr 17, 2014 00:26:25 ISTHomeTrainsΣChainsAtlasPNRForumGalleryNewsFAQTripsMembersLoginFeedback
No Recent News for this Train
Other Trains in the News **new
Latest...
..
Mon Dec 30, 2013 (12:01AM)
⇐ Return Journey: Train# 19038

19037/Avadh Express

Oct 03 2013 (4:56PM)
Change Departure Station:
Change Arrival Station:
Post a Train Travel TipPost a Train Travel Tip **new
Post a Comment/Question/Picture/VideoPost a Comment/Question/Picture/Video
Pantry/Catering
✓ Pantry Car Avbl
✓ Catering Avbl
Loco/Rake Reversals
LJN/Lucknow Junction (6);
RSA - Rake Sharing
19037/19038 have RSA with 19039/19040.
Rake/Coach Composition
Wap 4 BRC shed-SLR-S15-S14-S13-S12-S11-S10-S9-S8-S7-S6-S5-S4-S3-S2-S1-PC-B2-B1-A1-GEN-GEN-SLR; Total 23 Coaches
Loco
BDTS-LJN : BRC/CNB WAP-4; LJN-GKP : GD WDM-3A Entry NO.731585
News    PNR    Forum    Time-Table    Availability    Fare Chart    Map    Arr/Dep History    Trips    Gallery    ΣChains    X/O    Timeline    
Travel Time: 39h 0m    64 halts    Distance: 1845 km    Avg Speed: 47 km/hr
Type: Mail/Express
Zone: WR/Western
Departs @ 22:40 (Avg 1m late)
Platform# 1
S TW F 
Mumbai Bandra Terminus/BDTS 
Arrives @ 13:40 +2 nights (Avg 29m late)
Platform# 7
S T TF 
Gorakhpur Junction/GKP 

64 halts. 291 intermediate Stations between Mumbai Bandra Terminus and Gorakhpur Junction

Show ALL intermediate Stations  Show Old Time-Table

#CodeStation NameX/OArrivesAvgDepartsAvgHaltPFDay#KmSpeedElevZoneAddress
1BDTS»Mumbai Bandra Terminus (5)»  -22:40+1110.0234mWRMumbai 400050, Maharashtra
2ADHMumbai Andheri (9)  22:56+322:58+42m816.25012mWRMumbai, Maharashtra
3BVIMumbai Borivali (8)  23:13+923:18+115m6118.76719mWRMumbai - 400092, Maharashtra
4BORBoisar (3)  00:19+1700:21+172m2287.06017mWRBoisar Tel.no-02525-266626, Maharashtra
5VAPIVapi (3)X  01:31+1201:33+122m12157.26327mWRVapi, Gujarat
6BLValsad (3)X  01:58+802:00+92m22183.46515mWRValsad, Gujarat
7STSurat (4)X  03:03+303:08+45m12252.26519mWRSurat 395001, Gujarat
8AKVAnkleshwar Junction (4)X  03:54+1003:56+122m12302.17319mWRAnkleshwar, Gujarat
9BRCVadodara Junction (7)X  05:02+1205:12+1110m32382.07036mWRVadodara, Gujarat
10GDAGodhra Junction (3)  06:15+406:18+43m22455.880122mWRGodhra, Gujarat
11DHDDahod (3)  07:13+3207:15+322m32528.990313mWRDahod, Gujarat
12MGNMeghnagar (3)  07:37+3707:39+382m12562.174317mWRJhabua, Madhya Pradesh
13BMIBamnia (2)X  08:08+4208:10+422m12597.634392mWRBamnia, Madhya Pradesh
14RTMRatlam Junction (7)  09:30+1109:50+1120m62642.475495mWRRatlam, Madhya Pradesh
15KUHKhachrod (2)X  10:12+1510:14+162m22670.020497mWRUjjain, Madhya Pradesh
16NADNagda Junction (4)X  10:55-211:00+45m--2683.873468mWRNagda, Madhya Pradesh
17MEPMahidpur Road  11:14+1411:16+172m--2700.984493mWCRGogapur, Madhya Pradesh
18VMAVikramgarh Alot (2)X  11:33+2011:35+222m22724.873443mWCRKota Division, Madhya Pradesh
19CMUChau Mahla (3)  11:53+2711:55+282m22746.671426mWCRJhalawar, Rajasthan
20SVASuwasra (2)  12:08+3012:10+312m--2762.062450mWCRSuwasra, Madhya Pradesh
21SGZShamgarh (3)X  12:23+3412:25+362m--2775.481463mWCRMandsaur, Madhya Pradesh
22GOHGaroth (2)  12:33+3812:35+382m22786.276441mWCRMadhya Pradesh 458880, Madhya Pradesh
23BWMBhawani Mandi (3)  12:53+3712:55+382m--2808.976384mWCRBhawani Mandi, Madhya Pradesh
24JHWJhalawar Road (3)  13:08+3913:10+392m--2825.374361mWCRJhalawar City, Rajasthan
25RMARamganj Mandi Junction (3)  13:20+3913:22+392m--2837.754358mWCRRamganj Mandi, Rajasthan
26MKXMorak (2)  13:32+3913:34+392m22846.881337mWCRMorak, Rajasthan
27DKNTDakaniya Talav (2)X  14:13+4214:15+422m12899.622278mWCRKota, Rajasthan
28KOTAKota Junction (5)X  14:40+3314:50+3410m12909.0110256mWCRKota, Rajasthan
29LKELakheri (3)  15:23+5215:25+532m22969.566228mWCRBundi, Rajasthan
30IDGIndargarh Sumerganj Mandi (2)  15:35+5615:37+562m22980.545247mWCRIndargarh, Rajasthan
31SWMSawai Madhopur Junction (4)X  16:25+3916:30+385m--21016.871266mWCRSawai Madhopur, Rajasthan
32GGCGangapur City (3)X  17:24+3317:25+371m--21080.782270mWCRGangapur, Rajasthan
33SMBJShri Mahabirji (3)  17:50+4517:52+452m221114.861240mWCRKarauli, Rajasthan
34HANHindaun City (2)X  18:02+4318:04+432m--21125.026230mWCRKarauli, Rajasthan
35BXNBayana Junction (3)  19:20+1719:25+215m121157.847198mWCRBayana, Rajasthan
36RBSRupbas (2)X  20:09+2020:11+262m--21192.043178mNCRJAGNER ROAD, Rajasthan
37FTSFatehpur Sikri (2)  20:31+2220:33+282m121206.250176mNCRAgra, Uttar Pradesh
38KLBKiraoli (1)  20:48+2820:50+312m121218.636174mNCRKiraoli, Uttar Pradesh
39IDHIdgah Agra Junction (3)  21:26+2821:28+362m121240.28168mNCRAgra, Uttar Pradesh
40AFAgra Fort (3)  21:45+3221:55+4610m121242.415170mNCRRakabganj, Uttar Pradesh
41TDLTundla Junction (4)XO  23:25+5123:35+5710m321265.333167mNCRDistt.Firozabad, Uttar Pradesh
42FZDFirozabad (4)X  00:05+5100:07+562m231281.857164mNCRFirozabad, Uttar Pradesh
43SKBShikohabad Junction (4)X  00:28+5400:30+582m231301.785166mNCRDistrict Firozabad, Uttar Pradesh
44ETWEtawah (5)X  01:09+1:0501:11+1:122m331357.170154mNCRDistt. Etawah, Uttar Pradesh
45BNTBharthana (3)XO  01:28+1:1201:30+1:162m331377.048147mNCRBharthana, Uttar Pradesh
46PHDPhaphund (4)X  02:15+1:0302:17+1:072m--31413.336146mNCRdist. Auraiya, Uttar Pradesh
47CNBKanpur Central (10)  04:35+3004:45+3210m--31496.550128mNCRKanpur, Uttar Pradesh
48ONUnnao Junction (5)X  05:06+4605:08+462m--31513.942129mNRUnnao, Uttar Pradesh
49LJNLucknow Junction (6)↵¶06:25+3706:50+3925m431567.712126mNERLucknow, Uttar Pradesh
50LCLucknow City (3)  07:14+3807:16+392m--31572.527127mNERLucknow, Uttar Pradesh
51BNZBadshahnagar (2)  07:30+3907:35+385m--31578.843116mNERLucknow, Uttar Pradesh
52GTNRGomti Nagar (3)  07:41+4007:43+412m131583.045117mNERLucknow, Uttar Pradesh
53BBKBarabanki Junction (4)  08:10+4208:12+422m--31603.458122mNRPin-225001, Uttar Pradesh
54BUWBurhwal Junction (3)X  08:40+4908:42+502m--31630.454119mNERBarabanki, Uttar Pradesh
55JLDJarwal Road (2)X  09:00+5109:02+542m--31646.557112mNERBehraich, Uttar Pradesh
56CLJColonelGanj (2)X  09:20+1:0109:22+1:022m--31663.833108mNERGonda, Uttar Pradesh
57GDGonda Junction (3)  10:15+4810:25+4610m231692.773110mNERGonda 271001, Uttar Pradesh
58MURMankapur Junction (5)X  10:48+4910:50+492m--31720.665104mNERDistrict Gonda, Uttar Pradesh
59MSWMaskanwa (2)  11:03+4911:05+492m--31734.633103mNERChhapaiya Rd, Uttar Pradesh
60SNCSwami Narayan Chhapia (2)11:13+4711:14+481m--31738.9114100mNERS Narayan Chpla, Uttar Pradesh
61BVBabhnan (2)  11:20+5211:22+522m--31750.366101mNERDistrict- Basti, Uttar Pradesh
62BSTBasti (4)  11:50+4811:55+475m231781.17790mNERBasti 272001, Uttar Pradesh
63KLDKhalilabad (3)  12:18+5312:20+542m--31810.63686mNERKhalilabad- 272175, Uttar Pradesh
64MHHMaghar (3)  12:34+4912:36+482m--31819.13383mNERNH 28. Distt- SantKabirNagar- 272173, Uttar Pradesh
65SWASahjanwa (2)X  12:51+4312:53+422m--31827.42280mNERGorakhpur - 273209, Uttar Pradesh
66GKP•Gorakhpur Junction (10)•  13:40+29-731844.6-84mNERGorakhpur 273001, Uttar Pradesh
Scroll to Top
Scroll to Bottom